Time;durP1;ratioP1;P1;durP2;ratioP2;P2;SDS_P1;SDS_P2;PMS_P1;PMS_P2;Temp;Humidity;BMP_temperature;BMP_pressure;BME280_temperature;BME280_humidity;BME280_pressure;Samples;Min_cycle;Max_cycle;Signal;HPM_P1;HPM_P2
2024/01/30 00:00:50;;;;;;;17.15;10.82;;;;;;;;;;5098230;28;20033;-85
2024/01/30 00:03:16;;;;;;;14.65;10.45;;;;;;;;;;5098569;28;20009;-84
2024/01/30 00:05:42;;;;;;;16.00;10.57;;;;;;;;;;5097115;28;20083;-84
2024/01/30 00:08:08;;;;;;;18.13;11.02;;;;;;;;;;5097076;28;20023;-86
2024/01/30 00:10:35;;;;;;;12.93;8.70;;;;;;;;;;5058771;28;20519;-85
2024/01/30 00:13:02;;;;;;;16.45;11.32;;;;;;;;;;5073109;28;20119;-85
2024/01/30 00:15:28;;;;;;;19.30;11.63;;;;;;;;;;5072832;28;20064;-84
2024/01/30 00:17:54;;;;;;;21.08;9.68;;;;;;;;;;5072621;28;20086;-84
2024/01/30 00:20:21;;;;;;;14.00;9.85;;;;;;;;;;5072726;28;20020;-84
2024/01/30 00:22:47;;;;;;;12.23;7.70;;;;;;;;;;5072587;28;20027;-84
2024/01/30 00:25:13;;;;;;;18.58;10.85;;;;;;;;;;5072844;28;20063;-84
2024/01/30 00:27:39;;;;;;;15.95;10.75;;;;;;;;;;5072864;28;20024;-85
2024/01/30 00:30:06;;;;;;;16.58;9.15;;;;;;;;;;5072800;28;20024;-86
2024/01/30 00:32:32;;;;;;;13.38;8.98;;;;;;;;;;5072605;28;20613;-84
2024/01/30 00:34:58;;;;;;;15.75;10.27;;;;;;;;;;5072480;28;20048;-85
2024/01/30 00:37:24;;;;;;;15.15;10.15;;;;;;;;;;5072523;28;20506;-84
2024/01/30 00:39:50;;;;;;;14.77;8.70;;;;;;;;;;5072365;28;20024;-85
2024/01/30 00:42:16;;;;;;;17.15;11.98;;;;;;;;;;5074217;28;20035;-85
2024/01/30 00:44:42;;;;;;;13.70;8.82;;;;;;;;;;5072522;28;20115;-84
2024/01/30 00:47:08;;;;;;;14.43;8.55;;;;;;;;;;5072073;28;20032;-85
2024/01/30 00:49:35;;;;;;;18.35;10.27;;;;;;;;;;5072111;28;20036;-85
2024/01/30 00:52:01;;;;;;;16.13;9.07;;;;;;;;;;5073192;28;20020;-85
2024/01/30 00:54:27;;;;;;;15.27;9.05;;;;;;;;;;5071914;28;20031;-82
2024/01/30 00:56:53;;;;;;;19.52;9.70;;;;;;;;;;5071672;28;20032;-85
2024/01/30 00:59:19;;;;;;;14.77;8.88;;;;;;;;;;5071956;28;20016;-84
2024/01/30 01:01:45;;;;;;;14.25;9.23;;;;;;;;;;5071926;28;20024;-85
2024/01/30 01:04:11;;;;;;;14.80;8.88;;;;;;;;;;5071645;28;20044;-84
2024/01/30 01:06:37;;;;;;;16.42;10.85;;;;;;;;;;5071919;28;20028;-84
2024/01/30 01:09:04;;;;;;;20.08;11.73;;;;;;;;;;5071479;28;20024;-85
2024/01/30 01:11:30;;;;;;;12.32;8.25;;;;;;;;;;5071998;28;20112;-84
2024/01/30 01:13:56;;;;;;;13.88;8.60;;;;;;;;;;5071405;28;20033;-85
2024/01/30 01:16:22;;;;;;;18.25;10.18;;;;;;;;;;5071561;28;20426;-84
2024/01/30 01:18:48;;;;;;;12.57;8.45;;;;;;;;;;5071800;28;20043;-83
2024/01/30 01:21:14;;;;;;;12.65;8.23;;;;;;;;;;5071302;28;20020;-85
2024/01/30 01:23:40;;;;;;;14.35;8.95;;;;;;;;;;5071691;28;20051;-84
2024/01/30 01:26:06;;;;;;;13.02;8.20;;;;;;;;;;5071833;28;20032;-84
2024/01/30 01:28:32;;;;;;;19.45;11.63;;;;;;;;;;5071764;28;20028;-85
2024/01/30 01:31:04;;;;;;;23.52;13.65;;;;;;;;;;5071530;28;20024;-83
2024/01/30 01:33:31;;;;;;;14.65;8.48;;;;;;;;;;5071310;28;20028;-83
2024/01/30 01:35:58;;;;;;;19.42;10.20;;;;;;;;;;5071656;28;20024;-82
2024/01/30 01:38:24;;;;;;;14.30;8.15;;;;;;;;;;5071204;28;20036;-82
2024/01/30 01:40:51;;;;;;;12.75;8.63;;;;;;;;;;5071224;28;20032;-83
2024/01/30 01:43:17;;;;;;;15.45;9.57;;;;;;;;;;5071296;28;20468;-82
2024/01/30 01:45:43;;;;;;;17.17;10.48;;;;;;;;;;5071520;28;20050;-82
2024/01/30 01:48:09;;;;;;;14.68;8.82;;;;;;;;;;5071348;28;20024;-82
2024/01/30 01:50:36;;;;;;;13.57;8.95;;;;;;;;;;5071343;28;20028;-83
2024/01/30 01:53:03;;;;;;;13.52;8.98;;;;;;;;;;5072592;28;20029;-81
2024/01/30 01:55:30;;;;;;;15.13;10.45;;;;;;;;;;5071414;28;20439;-84
2024/01/30 01:57:56;;;;;;;16.73;10.13;;;;;;;;;;5071328;28;20029;-85
2024/01/30 02:00:22;;;;;;;14.93;9.50;;;;;;;;;;5071609;28;20029;-85
2024/01/30 02:02:50;;;;;;;19.67;10.10;;;;;;;;;;5071467;28;20032;-83
2024/01/30 02:05:16;;;;;;;13.98;9.02;;;;;;;;;;5071035;28;20097;-81
2024/01/30 02:07:43;;;;;;;15.57;9.77;;;;;;;;;;5071548;28;20518;-83
2024/01/30 02:10:09;;;;;;;16.88;9.55;;;;;;;;;;5072179;28;20074;-84
2024/01/30 02:12:35;;;;;;;16.55;10.68;;;;;;;;;;5077263;28;20051;-83
2024/01/30 02:15:02;;;;;;;14.50;8.98;;;;;;;;;;5079907;28;20025;-82
2024/01/30 02:17:28;;;;;;;14.32;9.27;;;;;;;;;;5071803;28;20115;-83
2024/01/30 02:19:54;;;;;;;16.27;9.98;;;;;;;;;;5071546;28;20025;-83
2024/01/30 02:22:20;;;;;;;16.60;10.93;;;;;;;;;;5071675;28;20025;-83
2024/01/30 02:24:46;;;;;;;14.25;8.43;;;;;;;;;;5071526;28;20048;-83
2024/01/30 02:27:13;;;;;;;15.52;9.20;;;;;;;;;;5072919;28;20024;-81
2024/01/30 02:29:39;;;;;;;17.00;11.27;;;;;;;;;;5074221;28;20035;-82
2024/01/30 02:32:06;;;;;;;18.20;12.55;;;;;;;;;;5092960;28;20013;-82
2024/01/30 02:34:32;;;;;;;14.63;9.80;;;;;;;;;;5095449;28;20017;-82
2024/01/30 02:36:58;;;;;;;15.90;9.85;;;;;;;;;;5095840;28;20040;-84
2024/01/30 02:39:24;;;;;;;16.30;10.38;;;;;;;;;;5084917;28;20028;-83
2024/01/30 02:41:50;;;;;;;12.52;8.77;;;;;;;;;;5077424;28;20024;-85
2024/01/30 02:44:16;;;;;;;16.50;9.68;;;;;;;;;;5070451;28;20021;-85
2024/01/30 02:46:42;;;;;;;15.77;10.63;;;;;;;;;;5072747;28;20043;-85
2024/01/30 02:49:08;;;;;;;15.50;10.40;;;;;;;;;;5074322;28;20490;-84
2024/01/30 02:51:34;;;;;;;17.67;9.98;;;;;;;;;;5074530;28;20036;-84
2024/01/30 02:54:00;;;;;;;15.02;10.07;;;;;;;;;;5074249;28;20033;-83
2024/01/30 02:56:26;;;;;;;15.50;10.70;;;;;;;;;;5074587;28;20032;-84
2024/01/30 02:58:52;;;;;;;18.17;11.30;;;;;;;;;;5074544;28;20016;-83
2024/01/30 03:01:18;;;;;;;15.48;10.75;;;;;;;;;;5074295;28;20051;-83
2024/01/30 03:03:44;;;;;;;19.45;12.45;;;;;;;;;;5074410;28;20017;-84
2024/01/30 03:06:10;;;;;;;18.13;11.50;;;;;;;;;;5073993;28;20052;-84
2024/01/30 03:08:36;;;;;;;20.55;13.02;;;;;;;;;;5074354;28;20020;-85
2024/01/30 03:11:02;;;;;;;15.45;10.00;;;;;;;;;;5073989;28;20469;-84
2024/01/30 03:13:28;;;;;;;14.57;10.57;;;;;;;;;;5074114;28;20032;-84
2024/01/30 03:15:54;;;;;;;16.73;10.48;;;;;;;;;;5074220;28;20070;-84
2024/01/30 03:18:21;;;;;;;17.45;11.25;;;;;;;;;;5073822;28;20024;-85
2024/01/30 03:20:47;;;;;;;17.85;11.65;;;;;;;;;;5074053;28;20052;-84
2024/01/30 03:23:13;;;;;;;18.67;11.77;;;;;;;;;;5073847;28;20102;-83
2024/01/30 03:25:39;;;;;;;17.48;12.05;;;;;;;;;;5074091;28;20040;-83
2024/01/30 03:28:05;;;;;;;16.33;11.30;;;;;;;;;;5073984;28;20484;-83
2024/01/30 03:30:32;;;;;;;17.17;11.50;;;;;;;;;;5073926;28;20029;-83
2024/01/30 03:32:58;;;;;;;17.60;12.13;;;;;;;;;;5077437;28;20028;-86
2024/01/30 03:35:24;;;;;;;18.17;10.05;;;;;;;;;;5074315;28;20024;-86
2024/01/30 03:37:50;;;;;;;19.73;12.48;;;;;;;;;;5074079;28;20032;-85
2024/01/30 03:40:16;;;;;;;17.50;10.52;;;;;;;;;;5073653;28;20090;-84
2024/01/30 03:42:42;;;;;;;17.83;11.38;;;;;;;;;;5073741;28;20356;-83
2024/01/30 03:45:08;;;;;;;19.90;12.68;;;;;;;;;;5073399;28;20054;-83
2024/01/30 03:47:34;;;;;;;17.08;10.90;;;;;;;;;;5073303;28;20017;-83
2024/01/30 03:50:00;;;;;;;20.65;14.73;;;;;;;;;;5073323;28;20021;-82
2024/01/30 03:52:26;;;;;;;15.63;10.55;;;;;;;;;;5073183;28;20028;-84
2024/01/30 03:54:52;;;;;;;16.38;11.50;;;;;;;;;;5073386;28;20036;-84
2024/01/30 03:57:18;;;;;;;16.10;10.65;;;;;;;;;;5072921;28;20021;-85
2024/01/30 03:59:45;;;;;;;13.98;9.98;;;;;;;;;;5073457;28;20021;-85
2024/01/30 04:02:11;;;;;;;17.77;10.15;;;;;;;;;;5074431;28;20091;-86
2024/01/30 04:04:38;;;;;;;19.60;10.90;;;;;;;;;;5073288;28;20135;-87
2024/01/30 04:07:04;;;;;;;16.10;10.88;;;;;;;;;;5073392;28;20073;-85
2024/01/30 04:09:30;;;;;;;19.63;12.10;;;;;;;;;;5073517;28;20028;-84
2024/01/30 04:11:56;;;;;;;21.67;12.40;;;;;;;;;;5073106;28;20035;-87
2024/01/30 04:14:22;;;;;;;15.15;8.93;;;;;;;;;;5073400;28;20029;-87
2024/01/30 04:16:48;;;;;;;15.25;8.85;;;;;;;;;;5073466;28;20456;-84
2024/01/30 04:19:14;;;;;;;16.08;10.05;;;;;;;;;;5072944;28;20472;-85
2024/01/30 04:21:40;;;;;;;20.08;12.23;;;;;;;;;;5073051;28;20422;-85
2024/01/30 04:24:06;;;;;;;18.88;11.80;;;;;;;;;;5073001;28;20056;-85
2024/01/30 04:26:32;;;;;;;17.30;11.70;;;;;;;;;;5072912;28;20063;-84
2024/01/30 04:28:58;;;;;;;15.20;10.00;;;;;;;;;;5073114;28;20048;-85
2024/01/30 04:31:24;;;;;;;22.13;12.35;;;;;;;;;;5072721;28;20549;-82
2024/01/30 04:33:50;;;;;;;15.18;9.40;;;;;;;;;;5072624;28;20423;-85
2024/01/30 04:36:17;;;;;;;15.43;9.60;;;;;;;;;;5072606;28;20024;-83
2024/01/30 04:38:43;;;;;;;16.05;9.43;;;;;;;;;;5072840;28;20078;-82
2024/01/30 04:41:09;;;;;;;16.50;11.35;;;;;;;;;;5073632;28;20021;-82
2024/01/30 04:43:35;;;;;;;18.75;11.52;;;;;;;;;;5074030;28;20029;-82
2024/01/30 04:46:02;;;;;;;15.60;10.30;;;;;;;;;;5084690;28;20024;-78
2024/01/30 04:48:28;;;;;;;19.77;13.55;;;;;;;;;;5095908;28;20033;-80
2024/01/30 04:50:54;;;;;;;18.98;10.95;;;;;;;;;;5094589;28;20008;-81
2024/01/30 04:53:20;;;;;;;15.75;10.98;;;;;;;;;;5084245;28;20052;-82
2024/01/30 04:55:46;;;;;;;15.85;10.13;;;;;;;;;;5078988;28;20460;-82
2024/01/30 04:58:13;;;;;;;17.67;10.93;;;;;;;;;;5071630;28;20035;-82
2024/01/30 05:00:39;;;;;;;29.88;9.35;;;;;;;;;;5072363;28;20032;-88
2024/01/30 05:03:05;;;;;;;17.20;9.52;;;;;;;;;;5072864;28;20032;-88
2024/01/30 05:05:31;;;;;;;18.92;12.70;;;;;;;;;;5072399;28;20044;-88
2024/01/30 05:07:57;;;;;;;17.25;10.60;;;;;;;;;;5071974;28;20054;-87
2024/01/30 05:10:23;;;;;;;15.55;10.55;;;;;;;;;;5071486;28;20097;-86
2024/01/30 05:12:49;;;;;;;19.58;11.57;;;;;;;;;;5073370;28;20021;-88
2024/01/30 05:15:15;;;;;;;13.18;9.15;;;;;;;;;;5072405;28;20115;-81
2024/01/30 05:17:41;;;;;;;16.85;10.75;;;;;;;;;;5071833;28;20384;-82
2024/01/30 05:20:07;;;;;;;13.18;8.93;;;;;;;;;;5071294;28;20029;-81
2024/01/30 05:22:33;;;;;;;16.67;10.40;;;;;;;;;;5071906;28;20059;-82
2024/01/30 05:24:59;;;;;;;13.68;8.98;;;;;;;;;;5071760;28;20020;-81
2024/01/30 05:27:25;;;;;;;20.27;11.57;;;;;;;;;;5071176;28;20028;-80
2024/01/30 05:29:51;;;;;;;14.85;8.85;;;;;;;;;;5071425;28;20025;-83
2024/01/30 05:32:17;;;;;;;19.17;10.07;;;;;;;;;;5070983;28;20024;-84
2024/01/30 05:34:43;;;;;;;12.55;8.75;;;;;;;;;;5071800;28;20039;-84
2024/01/30 05:37:14;;;;;;;14.60;9.45;;;;;;;;;;5072750;28;20027;-85
2024/01/30 05:39:40;;;;;;;;;;;;;;;;;;5073820;28;20028;-87
2024/01/30 05:42:06;;;;;;;19.90;11.68;;;;;;;;;;5073145;28;19904;-86
2024/01/30 05:44:32;;;;;;;12.90;8.45;;;;;;;;;;5073525;28;20024;-86
2024/01/30 05:46:58;;;;;;;17.88;9.00;;;;;;;;;;5072905;28;20525;-85
2024/01/30 05:49:24;;;;;;;15.38;10.63;;;;;;;;;;5071860;28;20070;-85
2024/01/30 05:51:50;;;;;;;14.38;8.95;;;;;;;;;;5071595;28;20020;-86
2024/01/30 05:54:16;;;;;;;15.73;9.20;;;;;;;;;;5071749;28;20028;-84
2024/01/30 05:56:42;;;;;;;15.75;10.90;;;;;;;;;;5071346;28;20024;-84
2024/01/30 05:59:08;;;;;;;15.90;10.57;;;;;;;;;;5071513;28;20418;-86
2024/01/30 06:01:34;;;;;;;15.05;10.30;;;;;;;;;;5072279;28;20043;-85
2024/01/30 06:04:01;;;;;;;16.10;9.70;;;;;;;;;;5070952;28;20024;-84
2024/01/30 06:06:27;;;;;;;13.48;8.77;;;;;;;;;;5071795;28;20017;-84
2024/01/30 06:08:56;;;;;;;20.95;11.48;;;;;;;;;;5071781;28;20085;-84
2024/01/30 06:11:22;;;;;;;16.70;9.55;;;;;;;;;;5070980;28;20025;-84
2024/01/30 06:13:48;;;;;;;13.70;9.82;;;;;;;;;;5054033;28;20081;-83
2024/01/30 06:16:14;;;;;;;18.52;8.88;;;;;;;;;;5070773;28;20114;-83
2024/01/30 06:18:40;;;;;;;13.95;9.55;;;;;;;;;;5070866;28;20495;-83
2024/01/30 06:21:06;;;;;;;16.90;8.93;;;;;;;;;;5073479;28;20024;-83
2024/01/30 06:23:32;;;;;;;11.77;7.38;;;;;;;;;;5074689;28;20028;-85
2024/01/30 06:25:58;;;;;;;15.38;8.27;;;;;;;;;;5075268;28;20120;-84
2024/01/30 06:28:24;;;;;;;15.23;9.70;;;;;;;;;;5075195;28;20052;-85
2024/01/30 06:30:50;;;;;;;15.52;9.60;;;;;;;;;;5075158;28;20025;-84
2024/01/30 06:33:16;;;;;;;13.88;8.65;;;;;;;;;;5074911;28;20024;-84
2024/01/30 06:35:42;;;;;;;14.40;9.52;;;;;;;;;;5058761;28;20058;-85
2024/01/30 06:38:09;;;;;;;14.10;9.00;;;;;;;;;;5075565;28;20067;-85
2024/01/30 06:40:35;;;;;;;16.90;8.63;;;;;;;;;;5076064;28;20025;-86
2024/01/30 06:43:01;;;;;;;14.18;8.80;;;;;;;;;;5075915;28;20028;-86
2024/01/30 06:45:27;;;;;;;18.08;10.45;;;;;;;;;;5074954;28;20468;-84
2024/01/30 06:47:53;;;;;;;15.63;10.98;;;;;;;;;;5074978;28;20028;-84
2024/01/30 06:50:20;;;;;;;13.50;9.98;;;;;;;;;;5075308;28;20020;-84
2024/01/30 06:52:46;;;;;;;16.45;9.38;;;;;;;;;;5074411;28;20438;-84
2024/01/30 06:55:12;;;;;;;13.60;7.95;;;;;;;;;;5075195;28;20021;-84
2024/01/30 06:57:38;;;;;;;10.68;7.25;;;;;;;;;;5075574;28;20380;-84
2024/01/30 07:00:04;;;;;;;14.02;7.78;;;;;;;;;;5078067;28;20044;-83
2024/01/30 07:02:30;;;;;;;15.98;8.48;;;;;;;;;;5098854;28;20027;-82
2024/01/30 07:04:56;;;;;;;16.17;9.85;;;;;;;;;;5098367;28;20081;-82
2024/01/30 07:07:22;;;;;;;13.52;8.70;;;;;;;;;;5096349;28;20036;-83
2024/01/30 07:09:52;;;;;;;12.38;6.85;;;;;;;;;;5087376;28;20025;-84
2024/01/30 07:12:18;;;;;;;13.00;7.57;;;;;;;;;;5076173;28;20067;-79
2024/01/30 07:14:44;;;;;;;18.27;9.30;;;;;;;;;;5074124;28;20028;-78
2024/01/30 07:17:10;;;;;;;14.52;8.50;;;;;;;;;;5074482;28;20460;-78
2024/01/30 07:19:36;;;;;;;17.15;9.25;;;;;;;;;;5073489;28;20017;-78
2024/01/30 07:22:02;;;;;;;14.82;9.82;;;;;;;;;;5073617;28;20031;-79
2024/01/30 07:24:28;;;;;;;13.20;7.30;;;;;;;;;;5073845;28;20024;-85
2024/01/30 07:26:54;;;;;;;15.70;8.88;;;;;;;;;;5074178;28;20028;-86
2024/01/30 07:29:21;;;;;;;14.98;9.48;;;;;;;;;;5073866;28;20024;-85
2024/01/30 07:31:48;;;;;;;16.35;9.82;;;;;;;;;;5073114;28;20111;-85
2024/01/30 07:34:14;;;;;;;12.15;7.95;;;;;;;;;;5074156;28;20063;-85
2024/01/30 07:36:40;;;;;;;14.75;9.75;;;;;;;;;;5073911;28;20024;-85
2024/01/30 07:39:06;;;;;;;16.10;8.82;;;;;;;;;;5073807;28;20028;-85
2024/01/30 07:41:32;;;;;;;15.98;9.43;;;;;;;;;;5073962;28;20054;-85
2024/01/30 07:43:58;;;;;;;11.77;5.95;;;;;;;;;;5074034;28;20098;-85
2024/01/30 07:46:25;;;;;;;9.85;4.57;;;;;;;;;;5073607;28;20390;-85
2024/01/30 07:48:51;;;;;;;14.30;7.38;;;;;;;;;;5073787;28;20541;-84
2024/01/30 07:51:17;;;;;;;11.50;5.75;;;;;;;;;;5073967;28;20404;-86
2024/01/30 07:53:43;;;;;;;7.82;3.97;;;;;;;;;;5073671;28;20400;-85
2024/01/30 07:56:09;;;;;;;6.82;3.33;;;;;;;;;;5073532;28;20135;-86
2024/01/30 07:58:35;;;;;;;6.65;3.80;;;;;;;;;;5073787;28;20105;-85
2024/01/30 08:01:01;;;;;;;6.60;3.50;;;;;;;;;;5073560;28;20028;-86
2024/01/30 08:03:27;;;;;;;6.97;4.03;;;;;;;;;;5073453;28;20025;-85
2024/01/30 08:05:53;;;;;;;14.25;7.50;;;;;;;;;;5073392;28;20095;-85
2024/01/30 08:08:19;;;;;;;15.05;8.23;;;;;;;;;;5073268;28;20036;-85
2024/01/30 08:10:45;;;;;;;17.20;8.88;;;;;;;;;;5073793;28;20039;-86
2024/01/30 08:13:11;;;;;;;10.63;6.75;;;;;;;;;;5073468;28;20024;-86
2024/01/30 08:15:37;;;;;;;11.38;6.53;;;;;;;;;;5073155;28;20056;-86
2024/01/30 08:18:05;;;;;;;13.10;8.23;;;;;;;;;;5073107;28;20082;-86
2024/01/30 08:20:31;;;;;;;14.48;9.00;;;;;;;;;;5072686;28;20123;-86
2024/01/30 08:22:57;;;;;;;13.30;6.93;;;;;;;;;;5073326;28;20020;-86
2024/01/30 08:25:23;;;;;;;14.60;8.20;;;;;;;;;;5072836;28;20020;-85
2024/01/30 08:27:49;;;;;;;17.48;9.27;;;;;;;;;;5073390;28;20027;-86
2024/01/30 08:30:15;;;;;;;16.63;9.15;;;;;;;;;;5073659;28;20021;-86
2024/01/30 08:32:41;;;;;;;12.35;8.32;;;;;;;;;;5072640;28;20032;-86
2024/01/30 08:35:08;;;;;;;16.23;10.15;;;;;;;;;;5073332;28;20158;-87
2024/01/30 08:37:34;;;;;;;17.27;9.13;;;;;;;;;;5073196;28;20070;-87
2024/01/30 08:40:01;;;;;;;15.88;8.98;;;;;;;;;;5072941;28;20101;-85
2024/01/30 08:42:28;;;;;;;10.80;7.80;;;;;;;;;;5072740;28;20016;-84
2024/01/30 08:44:54;;;;;;;16.48;8.77;;;;;;;;;;5071906;28;20021;-85
2024/01/30 08:47:20;;;;;;;12.93;8.65;;;;;;;;;;5072803;28;20115;-86
2024/01/30 08:49:46;;;;;;;10.93;7.72;;;;;;;;;;5072768;28;20465;-85
2024/01/30 08:52:12;;;;;;;15.20;8.55;;;;;;;;;;5072814;28;20157;-86
2024/01/30 08:54:38;;;;;;;19.05;9.05;;;;;;;;;;5074506;28;20542;-81
2024/01/30 08:57:04;;;;;;;13.35;8.68;;;;;;;;;;5073334;28;20027;-81
2024/01/30 08:59:30;;;;;;;13.50;8.63;;;;;;;;;;5072750;28;20074;-80
2024/01/30 09:01:58;;;;;;;14.57;9.30;;;;;;;;;;5073868;28;20039;-76
2024/01/30 09:04:24;;;;;;;14.98;9.68;;;;;;;;;;5072880;28;20064;-80
2024/01/30 09:06:50;;;;;;;14.77;8.80;;;;;;;;;;5072962;28;20025;-79
2024/01/30 09:09:17;;;;;;;12.18;7.85;;;;;;;;;;5072715;28;20090;-79
2024/01/30 09:11:43;;;;;;;14.77;9.68;;;;;;;;;;5071555;28;20103;-78
2024/01/30 09:14:09;;;;;;;12.63;8.40;;;;;;;;;;5072108;28;20070;-79
2024/01/30 09:16:35;;;;;;;21.42;11.27;;;;;;;;;;5075440;28;20055;-76
2024/01/30 09:19:01;;;;;;;16.48;10.80;;;;;;;;;;5072847;28;20066;-77
2024/01/30 09:21:27;;;;;;;16.45;9.40;;;;;;;;;;5070944;28;20017;-77
2024/01/30 09:23:55;;;;;;;16.58;8.93;;;;;;;;;;5071461;28;20028;-76
2024/01/30 09:26:21;;;;;;;14.63;9.85;;;;;;;;;;5072250;28;20024;-78
2024/01/30 09:28:47;;;;;;;13.75;9.20;;;;;;;;;;5071281;28;20029;-76
2024/01/30 09:31:13;;;;;;;16.15;9.13;;;;;;;;;;5072571;28;20059;-77
2024/01/30 09:33:39;;;;;;;17.08;10.38;;;;;;;;;;5072176;28;20052;-78
2024/01/30 09:36:06;;;;;;;15.65;9.45;;;;;;;;;;5070969;28;20068;-78
2024/01/30 09:38:32;;;;;;;17.95;9.73;;;;;;;;;;5070864;28;20028;-79
2024/01/30 09:41:03;;;;;;;16.40;8.60;;;;;;;;;;5070994;28;20025;-80
2024/01/30 09:43:34;;;;;;;14.82;9.05;;;;;;;;;;5070702;28;20024;-78
2024/01/30 09:46:00;;;;;;;11.45;6.85;;;;;;;;;;5070986;28;20059;-80
2024/01/30 09:48:27;;;;;;;13.05;8.23;;;;;;;;;;5070925;28;20095;-78
2024/01/30 09:50:53;;;;;;;13.15;9.38;;;;;;;;;;5071174;28;20024;-79
2024/01/30 09:53:19;;;;;;;14.70;8.25;;;;;;;;;;5071055;28;20028;-77
2024/01/30 09:55:46;;;;;;;16.90;10.15;;;;;;;;;;5071761;28;20036;-78
2024/01/30 09:58:13;;;;;;;15.75;8.55;;;;;;;;;;5071009;28;20016;-77
2024/01/30 10:00:39;;;;;;;19.10;8.90;;;;;;;;;;5071935;28;20036;-79
2024/01/30 10:03:05;;;;;;;17.92;9.25;;;;;;;;;;5071018;28;20033;-77
2024/01/30 10:05:35;;;;;;;14.40;9.30;;;;;;;;;;5070442;28;20079;-80
2024/01/30 10:08:01;;;;;;;14.17;8.37;;;;;;;;;;5070924;28;20032;-79
2024/01/30 10:10:27;;;;;;;16.38;9.48;;;;;;;;;;5070627;28;20499;-81
2024/01/30 10:12:53;;;;;;;15.85;8.73;;;;;;;;;;5070766;28;20477;-78
2024/01/30 10:15:19;;;;;;;15.57;10.10;;;;;;;;;;5070811;28;20086;-78
2024/01/30 10:17:46;;;;;;;14.15;9.15;;;;;;;;;;5070573;28;20058;-78
2024/01/30 10:20:12;;;;;;;16.40;8.90;;;;;;;;;;5070742;28;20055;-78
2024/01/30 10:22:39;;;;;;;15.38;9.10;;;;;;;;;;5070756;28;20025;-78
2024/01/30 10:25:05;;;;;;;21.25;11.13;;;;;;;;;;5070941;28;20226;-81
2024/01/30 10:27:31;;;;;;;16.67;9.65;;;;;;;;;;5070392;28;20078;-79
2024/01/30 10:29:57;;;;;;;16.75;8.77;;;;;;;;;;5070352;28;20031;-77
2024/01/30 10:32:23;;;;;;;17.00;9.50;;;;;;;;;;5070526;28;20021;-78
2024/01/30 10:34:49;;;;;;;14.50;7.47;;;;;;;;;;5070170;28;20357;-77
2024/01/30 10:37:16;;;;;;;17.20;9.10;;;;;;;;;;5070385;28;20040;-80
2024/01/30 10:39:43;;;;;;;14.52;7.70;;;;;;;;;;5070016;28;20033;-78
2024/01/30 10:42:19;;;;;;;19.98;10.23;;;;;;;;;;5070583;28;20592;-80
2024/01/30 10:45:00;;;;;;;18.48;9.23;;;;;;;;;;5070402;28;20056;-77
2024/01/30 10:47:28;;;;;;;16.83;8.52;;;;;;;;;;5070264;28;20021;-78
2024/01/30 10:49:57;;;;;;;12.32;8.48;;;;;;;;;;5070435;28;20074;-77
2024/01/30 10:52:29;;;;;;;15.10;8.55;;;;;;;;;;5070520;28;20027;-75
2024/01/30 10:54:55;;;;;;;16.67;9.15;;;;;;;;;;5072156;28;20027;-77
2024/01/30 10:57:23;;;;;;;17.23;10.23;;;;;;;;;;5070610;28;20457;-75
2024/01/30 10:59:50;;;;;;;15.38;8.63;;;;;;;;;;5070812;28;20021;-76
2024/01/30 11:02:16;;;;;;;15.88;9.40;;;;;;;;;;5070435;28;20456;-76
2024/01/30 11:04:42;;;;;;;30.40;10.60;;;;;;;;;;5071332;28;20087;-76
2024/01/30 11:07:18;;;;;;;14.63;8.60;;;;;;;;;;5071193;28;20017;-78
2024/01/30 11:09:54;;;;;;;21.73;10.20;;;;;;;;;;5073718;28;20031;-78
2024/01/30 11:12:24;;;;;;;16.10;10.40;;;;;;;;;;5073925;28;20025;-77
2024/01/30 11:14:50;;;;;;;;;;;;;;;;;;5075087;28;20115;-77
2024/01/30 11:17:16;;;;;;;21.50;11.88;;;;;;;;;;5073800;28;19946;-76
2024/01/30 11:19:42;;;;;;;19.42;11.10;;;;;;;;;;5073556;28;20555;-77
2024/01/30 11:22:08;;;;;;;21.08;10.82;;;;;;;;;;5073674;28;20020;-76
2024/01/30 11:24:41;;;;;;;15.80;9.80;;;;;;;;;;5074815;28;20024;-76
2024/01/30 11:27:09;;;;;;;14.50;8.90;;;;;;;;;;5073793;28;20274;-75
2024/01/30 11:29:36;;;;;;;23.30;13.88;;;;;;;;;;5073784;28;20025;-76
2024/01/30 11:32:02;;;;;;;17.08;9.32;;;;;;;;;;5073713;28;20495;-75
2024/01/30 11:34:28;;;;;;;24.15;13.55;;;;;;;;;;5073358;28;20024;-76
2024/01/30 11:36:58;;;;;;;25.08;14.95;;;;;;;;;;5073502;28;20456;-77
2024/01/30 11:39:28;;;;;;;16.15;10.50;;;;;;;;;;5074520;28;20017;-77
2024/01/30 11:41:54;;;;;;;19.35;12.05;;;;;;;;;;5073538;28;20044;-77
2024/01/30 11:44:20;;;;;;;20.10;10.95;;;;;;;;;;5073369;28;20078;-77
2024/01/30 11:46:51;;;;;;;21.70;12.23;;;;;;;;;;5073034;28;20126;-77
2024/01/30 11:49:20;;;;;;;;;;;;;;;;;;5074283;28;20035;-78
2024/01/30 11:51:48;;;;;;;15.55;9.57;;;;;;;;;;5073569;28;19939;-77
2024/01/30 11:54:14;;;;;;;17.75;10.23;;;;;;;;;;5074890;28;20044;-77
2024/01/30 11:56:40;;;;;;;12.88;7.43;;;;;;;;;;5074361;28;20029;-77
2024/01/30 11:59:06;;;;;;;15.63;9.32;;;;;;;;;;5075302;28;20179;-77
2024/01/30 12:01:32;;;;;;;16.77;9.25;;;;;;;;;;5073096;28;20078;-77
2024/01/30 12:03:59;;;;;;;19.30;9.85;;;;;;;;;;5074850;28;20491;-77
2024/01/30 12:06:25;;;;;;;16.08;8.55;;;;;;;;;;5073537;28;20222;-77
2024/01/30 12:09:04;;;;;;;12.65;6.72;;;;;;;;;;5073005;28;20032;-77
2024/01/30 12:11:30;;;;;;;13.85;8.75;;;;;;;;;;5072774;28;20484;-77
2024/01/30 12:13:56;;;;;;;14.48;9.00;;;;;;;;;;5073126;28;20032;-77
2024/01/30 12:16:22;;;;;;;14.63;7.47;;;;;;;;;;5074333;28;20032;-77
2024/01/30 12:18:49;;;;;;;19.17;9.48;;;;;;;;;;5072421;28;20402;-78
2024/01/30 12:21:18;;;;;;;13.50;8.73;;;;;;;;;;5075179;28;20016;-82
2024/01/30 12:23:44;;;;;;;14.98;6.65;;;;;;;;;;5076777;28;20033;-84
2024/01/30 12:26:10;;;;;;;10.63;5.97;;;;;;;;;;5074842;28;20583;-84
2024/01/30 12:28:36;;;;;;;16.60;6.57;;;;;;;;;;5074313;28;20031;-83
2024/01/30 12:31:03;;;;;;;14.30;8.05;;;;;;;;;;5074457;28;20025;-82
2024/01/30 12:33:29;;;;;;;11.52;6.30;;;;;;;;;;5073773;28;20047;-80
2024/01/30 12:35:56;;;;;;;16.42;7.00;;;;;;;;;;5073627;28;20021;-79
2024/01/30 12:38:23;;;;;;;12.90;4.60;;;;;;;;;;5073451;28;20150;-77
2024/01/30 12:40:49;;;;;;;10.02;4.47;;;;;;;;;;5072938;28;20031;-83
2024/01/30 12:43:16;;;;;;;9.73;3.28;;;;;;;;;;5075057;28;20048;-84
2024/01/30 12:45:42;;;;;;;11.10;3.08;;;;;;;;;;5074993;28;20043;-85
2024/01/30 12:48:09;;;;;;;9.63;3.60;;;;;;;;;;5075203;28;20092;-82
2024/01/30 12:50:35;;;;;;;8.52;3.42;;;;;;;;;;5075649;28;20081;-82
2024/01/30 12:53:01;;;;;;;8.93;3.10;;;;;;;;;;5074167;28;20094;-78
2024/01/30 12:55:28;;;;;;;8.95;2.58;;;;;;;;;;5072786;28;20028;-78
2024/01/30 12:57:55;;;;;;;9.45;3.05;;;;;;;;;;5073996;28;20055;-78
2024/01/30 13:00:22;;;;;;;7.80;2.83;;;;;;;;;;5073582;28;20036;-78
2024/01/30 13:02:48;;;;;;;5.75;1.88;;;;;;;;;;5073457;28;20023;-77
2024/01/30 13:05:14;;;;;;;11.57;2.85;;;;;;;;;;5072197;28;20049;-78
2024/01/30 13:07:40;;;;;;;9.50;2.03;;;;;;;;;;5073755;28;20021;-78
2024/01/30 13:10:06;;;;;;;8.10;1.77;;;;;;;;;;5072164;28;20440;-77
2024/01/30 13:12:33;;;;;;;10.73;1.88;;;;;;;;;;5072103;28;20032;-77
2024/01/30 13:15:01;;;;;;;6.55;1.95;;;;;;;;;;5073723;28;20025;-77
2024/01/30 13:17:27;;;;;;;10.63;2.38;;;;;;;;;;5072610;28;20027;-78
2024/01/30 13:19:54;;;;;;;6.15;1.63;;;;;;;;;;5071923;28;20205;-78
2024/01/30 13:22:21;;;;;;;5.35;1.60;;;;;;;;;;5072298;28;20021;-77
2024/01/30 13:24:47;;;;;;;8.85;1.90;;;;;;;;;;5071434;28;20020;-77
2024/01/30 13:27:14;;;;;;;8.77;1.50;;;;;;;;;;5071881;28;20024;-77
2024/01/30 13:29:40;;;;;;;4.88;1.77;;;;;;;;;;5071135;28;20025;-78
2024/01/30 13:32:06;;;;;;;8.45;1.35;;;;;;;;;;5071579;28;20020;-77
2024/01/30 13:34:32;;;;;;;5.55;1.27;;;;;;;;;;5071750;28;20033;-78
2024/01/30 13:36:58;;;;;;;3.22;1.00;;;;;;;;;;5071773;28;20036;-76
2024/01/30 13:39:24;;;;;;;4.00;1.23;;;;;;;;;;5072609;28;20028;-76
2024/01/30 13:41:50;;;;;;;4.38;1.20;;;;;;;;;;5072349;28;20032;-76
2024/01/30 13:44:17;;;;;;;4.78;1.15;;;;;;;;;;5073436;28;20078;-77
2024/01/30 13:46:43;;;;;;;7.32;1.83;;;;;;;;;;5071432;28;20021;-78
2024/01/30 13:49:10;;;;;;;7.85;2.75;;;;;;;;;;5073001;28;20028;-78
2024/01/30 13:51:36;;;;;;;9.88;3.20;;;;;;;;;;5071448;28;20075;-78
2024/01/30 13:54:02;;;;;;;13.27;4.15;;;;;;;;;;5071423;28;20028;-78
2024/01/30 13:56:28;;;;;;;14.63;3.53;;;;;;;;;;5071855;28;20483;-78
2024/01/30 13:58:55;;;;;;;10.70;4.07;;;;;;;;;;5071330;28;20094;-77
2024/01/30 14:01:21;;;;;;;11.50;4.90;;;;;;;;;;5071525;28;20056;-77
2024/01/30 14:03:47;;;;;;;16.42;4.20;;;;;;;;;;5072590;28;20028;-77
2024/01/30 14:06:14;;;;;;;11.30;4.88;;;;;;;;;;5071327;28;20087;-78
2024/01/30 14:08:40;;;;;;;11.38;4.30;;;;;;;;;;5071073;28;20392;-77
2024/01/30 14:11:06;;;;;;;13.70;4.97;;;;;;;;;;5071101;28;20082;-77
2024/01/30 14:13:32;;;;;;;15.15;6.55;;;;;;;;;;5072176;28;20460;-78
2024/01/30 14:15:59;;;;;;;17.75;5.85;;;;;;;;;;5070480;28;20063;-77
2024/01/30 14:18:28;;;;;;;14.65;5.15;;;;;;;;;;5070764;28;20093;-78
2024/01/30 14:20:54;;;;;;;13.40;4.75;;;;;;;;;;5070360;28;20025;-78
2024/01/30 14:23:21;;;;;;;10.55;5.88;;;;;;;;;;5070892;28;20020;-78